sensor_id;sensor_type;location;lat;lon;timestamp;temperature;humidity
25914;DHT22;13718;50.922;5.346;2023-11-19T00:00:50;13.70;99.90
25914;DHT22;13718;50.922;5.346;2023-11-19T00:03:16;13.70;99.90
25914;DHT22;13718;50.922;5.346;2023-11-19T00:05:43;13.60;99.90
25914;DHT22;13718;50.922;5.346;2023-11-19T00:08:10;13.60;99.90
25914;DHT22;13718;50.922;5.346;2023-11-19T00:10:35;13.70;99.90
25914;DHT22;13718;50.922;5.346;2023-11-19T00:13:01;13.70;99.90
25914;DHT22;13718;50.922;5.346;2023-11-19T00:15:28;13.50;99.90
25914;DHT22;13718;50.922;5.346;2023-11-19T00:17:53;13.40;99.90
25914;DHT22;13718;50.922;5.346;2023-11-19T00:20:20;13.40;99.90
25914;DHT22;13718;50.922;5.346;2023-11-19T00:22:47;13.40;99.90
25914;DHT22;13718;50.922;5.346;2023-11-19T00:25:17;13.40;99.90
25914;DHT22;13718;50.922;5.346;2023-11-19T00:27:42;13.60;99.90
25914;DHT22;13718;50.922;5.346;2023-11-19T00:30:10;13.70;99.90
25914;DHT22;13718;50.922;5.346;2023-11-19T00:32:36;13.90;99.90
25914;DHT22;13718;50.922;5.346;2023-11-19T00:35:04;13.80;99.90
25914;DHT22;13718;50.922;5.346;2023-11-19T00:37:30;13.90;99.90
25914;DHT22;13718;50.922;5.346;2023-11-19T00:39:55;13.70;99.90
25914;DHT22;13718;50.922;5.346;2023-11-19T00:42:22;13.60;99.90
25914;DHT22;13718;50.922;5.346;2023-11-19T00:44:49;13.50;99.90
25914;DHT22;13718;50.922;5.346;2023-11-19T00:47:15;13.60;99.90
25914;DHT22;13718;50.922;5.346;2023-11-19T00:49:40;13.60;99.90
25914;DHT22;13718;50.922;5.346;2023-11-19T00:52:06;13.60;99.90
25914;DHT22;13718;50.922;5.346;2023-11-19T00:54:32;13.80;99.90
25914;DHT22;13718;50.922;5.346;2023-11-19T00:56:57;13.80;99.90
25914;DHT22;13718;50.922;5.346;2023-11-19T00:59:23;13.80;99.90
25914;DHT22;13718;50.922;5.346;2023-11-19T01:01:49;13.80;99.90
25914;DHT22;13718;50.922;5.346;2023-11-19T01:04:16;13.70;99.90
25914;DHT22;13718;50.922;5.346;2023-11-19T01:06:42;13.80;99.90
25914;DHT22;13718;50.922;5.346;2023-11-19T01:09:08;13.90;99.90
25914;DHT22;13718;50.922;5.346;2023-11-19T01:11:34;13.90;99.90
25914;DHT22;13718;50.922;5.346;2023-11-19T01:14:00;13.90;99.90
25914;DHT22;13718;50.922;5.346;2023-11-19T01:16:26;13.90;99.90
25914;DHT22;13718;50.922;5.346;2023-11-19T01:18:52;14.10;99.90
25914;DHT22;13718;50.922;5.346;2023-11-19T01:21:18;14.00;99.90
25914;DHT22;13718;50.922;5.346;2023-11-19T01:23:44;14.10;99.90
25914;DHT22;13718;50.922;5.346;2023-11-19T01:26:10;14.40;99.90
25914;DHT22;13718;50.922;5.346;2023-11-19T01:28:36;14.30;99.90
25914;DHT22;13718;50.922;5.346;2023-11-19T01:31:02;14.20;99.90
25914;DHT22;13718;50.922;5.346;2023-11-19T01:33:28;14.20;99.90
25914;DHT22;13718;50.922;5.346;2023-11-19T01:35:54;14.20;99.90
25914;DHT22;13718;50.922;5.346;2023-11-19T01:38:19;14.10;99.90
25914;DHT22;13718;50.922;5.346;2023-11-19T01:40:45;14.30;99.90
25914;DHT22;13718;50.922;5.346;2023-11-19T01:43:11;14.30;99.90
25914;DHT22;13718;50.922;5.346;2023-11-19T01:45:37;14.20;99.90
25914;DHT22;13718;50.922;5.346;2023-11-19T01:48:03;14.10;99.90
25914;DHT22;13718;50.922;5.346;2023-11-19T01:50:30;14.10;99.90
25914;DHT22;13718;50.922;5.346;2023-11-19T01:52:57;14.00;99.90
25914;DHT22;13718;50.922;5.346;2023-11-19T01:55:24;14.00;99.90
25914;DHT22;13718;50.922;5.346;2023-11-19T01:57:51;14.00;99.90
25914;DHT22;13718;50.922;5.346;2023-11-19T02:00:18;13.90;99.90
25914;DHT22;13718;50.922;5.346;2023-11-19T02:02:46;14.00;99.90
25914;DHT22;13718;50.922;5.346;2023-11-19T02:05:12;14.10;99.90
25914;DHT22;13718;50.922;5.346;2023-11-19T02:07:41;14.10;99.90
25914;DHT22;13718;50.922;5.346;2023-11-19T02:10:07;14.20;99.90
25914;DHT22;13718;50.922;5.346;2023-11-19T02:12:42;14.10;99.90
25914;DHT22;13718;50.922;5.346;2023-11-19T02:15:09;14.10;99.90
25914;DHT22;13718;50.922;5.346;2023-11-19T02:17:35;14.00;99.90
25914;DHT22;13718;50.922;5.346;2023-11-19T02:20:03;13.90;99.90
25914;DHT22;13718;50.922;5.346;2023-11-19T02:22:31;13.80;99.90
25914;DHT22;13718;50.922;5.346;2023-11-19T02:25:00;13.70;99.90
25914;DHT22;13718;50.922;5.346;2023-11-19T02:30:11;13.60;99.90
25914;DHT22;13718;50.922;5.346;2023-11-19T02:32:36;13.60;99.90
25914;DHT22;13718;50.922;5.346;2023-11-19T02:35:06;13.60;99.90
25914;DHT22;13718;50.922;5.346;2023-11-19T02:37:34;13.60;99.90
25914;DHT22;13718;50.922;5.346;2023-11-19T02:39:59;13.70;99.90
25914;DHT22;13718;50.922;5.346;2023-11-19T02:42:34;13.60;99.90
25914;DHT22;13718;50.922;5.346;2023-11-19T02:45:01;13.70;99.90
25914;DHT22;13718;50.922;5.346;2023-11-19T02:47:27;13.90;99.90
25914;DHT22;13718;50.922;5.346;2023-11-19T02:49:55;13.70;99.90
25914;DHT22;13718;50.922;5.346;2023-11-19T02:52:21;13.60;99.90
25914;DHT22;13718;50.922;5.346;2023-11-19T02:54:47;13.40;99.90
25914;DHT22;13718;50.922;5.346;2023-11-19T02:57:12;13.30;99.90
25914;DHT22;13718;50.922;5.346;2023-11-19T02:59:39;13.30;99.90
25914;DHT22;13718;50.922;5.346;2023-11-19T03:02:07;13.30;99.90
25914;DHT22;13718;50.922;5.346;2023-11-19T03:04:37;13.30;99.90
25914;DHT22;13718;50.922;5.346;2023-11-19T03:07:05;13.30;99.90
25914;DHT22;13718;50.922;5.346;2023-11-19T03:09:32;13.30;99.90
25914;DHT22;13718;50.922;5.346;2023-11-19T03:11:59;13.40;99.90
25914;DHT22;13718;50.922;5.346;2023-11-19T03:14:24;13.40;99.90
25914;DHT22;13718;50.922;5.346;2023-11-19T03:16:50;13.20;99.90
25914;DHT22;13718;50.922;5.346;2023-11-19T03:19:16;13.20;99.90
25914;DHT22;13718;50.922;5.346;2023-11-19T03:21:41;13.10;99.90
25914;DHT22;13718;50.922;5.346;2023-11-19T03:24:07;13.10;99.90
25914;DHT22;13718;50.922;5.346;2023-11-19T03:26:34;13.10;99.90
25914;DHT22;13718;50.922;5.346;2023-11-19T03:28:59;13.10;99.90
25914;DHT22;13718;50.922;5.346;2023-11-19T03:31:25;13.00;99.90
25914;DHT22;13718;50.922;5.346;2023-11-19T03:33:51;13.00;99.90
25914;DHT22;13718;50.922;5.346;2023-11-19T03:36:16;13.00;99.90
25914;DHT22;13718;50.922;5.346;2023-11-19T03:38:42;12.90;99.90
25914;DHT22;13718;50.922;5.346;2023-11-19T03:41:15;12.90;99.90
25914;DHT22;13718;50.922;5.346;2023-11-19T03:43:41;12.80;99.90
25914;DHT22;13718;50.922;5.346;2023-11-19T03:46:20;12.80;99.90
25914;DHT22;13718;50.922;5.346;2023-11-19T03:48:47;12.90;99.90
25914;DHT22;13718;50.922;5.346;2023-11-19T03:51:13;12.90;99.90
25914;DHT22;13718;50.922;5.346;2023-11-19T03:53:43;12.90;99.90
25914;DHT22;13718;50.922;5.346;2023-11-19T03:56:09;13.00;99.90
25914;DHT22;13718;50.922;5.346;2023-11-19T03:58:35;13.00;99.90
25914;DHT22;13718;50.922;5.346;2023-11-19T04:01:01;13.00;99.90
25914;DHT22;13718;50.922;5.346;2023-11-19T04:03:27;12.90;99.90
25914;DHT22;13718;50.922;5.346;2023-11-19T04:05:53;13.00;99.90
25914;DHT22;13718;50.922;5.346;2023-11-19T04:08:18;13.00;99.90
25914;DHT22;13718;50.922;5.346;2023-11-19T04:10:44;13.10;99.90
25914;DHT22;13718;50.922;5.346;2023-11-19T04:13:10;13.10;99.90
25914;DHT22;13718;50.922;5.346;2023-11-19T04:15:36;13.00;99.90
25914;DHT22;13718;50.922;5.346;2023-11-19T04:18:01;12.80;99.90
25914;DHT22;13718;50.922;5.346;2023-11-19T04:20:27;12.80;99.90
25914;DHT22;13718;50.922;5.346;2023-11-19T04:22:52;12.90;99.90
25914;DHT22;13718;50.922;5.346;2023-11-19T04:25:19;12.90;99.90
25914;DHT22;13718;50.922;5.346;2023-11-19T04:27:45;12.80;99.90
25914;DHT22;13718;50.922;5.346;2023-11-19T04:30:10;12.90;99.90
25914;DHT22;13718;50.922;5.346;2023-11-19T04:32:37;12.90;99.90
25914;DHT22;13718;50.922;5.346;2023-11-19T04:35:02;12.80;99.90
25914;DHT22;13718;50.922;5.346;2023-11-19T04:37:28;12.80;99.90
25914;DHT22;13718;50.922;5.346;2023-11-19T04:39:54;12.70;99.90
25914;DHT22;13718;50.922;5.346;2023-11-19T04:42:22;12.70;99.90
25914;DHT22;13718;50.922;5.346;2023-11-19T04:44:48;12.70;99.90
25914;DHT22;13718;50.922;5.346;2023-11-19T04:47:13;12.70;99.90
25914;DHT22;13718;50.922;5.346;2023-11-19T04:49:42;12.80;99.90
25914;DHT22;13718;50.922;5.346;2023-11-19T04:52:10;12.90;99.90
25914;DHT22;13718;50.922;5.346;2023-11-19T04:54:41;12.80;99.90
25914;DHT22;13718;50.922;5.346;2023-11-19T04:57:07;12.80;99.90
25914;DHT22;13718;50.922;5.346;2023-11-19T04:59:35;12.80;99.90
25914;DHT22;13718;50.922;5.346;2023-11-19T05:02:00;12.80;99.90
25914;DHT22;13718;50.922;5.346;2023-11-19T05:04:26;12.90;99.90
25914;DHT22;13718;50.922;5.346;2023-11-19T05:06:51;12.90;99.90
25914;DHT22;13718;50.922;5.346;2023-11-19T05:09:17;13.00;99.90
25914;DHT22;13718;50.922;5.346;2023-11-19T05:11:43;13.10;99.90
25914;DHT22;13718;50.922;5.346;2023-11-19T05:14:09;13.00;99.90
25914;DHT22;13718;50.922;5.346;2023-11-19T05:16:34;13.00;99.90
25914;DHT22;13718;50.922;5.346;2023-11-19T05:19:00;13.10;99.90
25914;DHT22;13718;50.922;5.346;2023-11-19T05:21:26;13.00;99.90
25914;DHT22;13718;50.922;5.346;2023-11-19T05:23:52;13.00;99.90
25914;DHT22;13718;50.922;5.346;2023-11-19T05:26:21;13.00;99.90
25914;DHT22;13718;50.922;5.346;2023-11-19T05:28:47;13.00;99.90
25914;DHT22;13718;50.922;5.346;2023-11-19T05:31:13;12.90;99.90
25914;DHT22;13718;50.922;5.346;2023-11-19T05:33:39;12.80;99.90
25914;DHT22;13718;50.922;5.346;2023-11-19T05:36:05;12.80;99.90
25914;DHT22;13718;50.922;5.346;2023-11-19T05:38:31;12.70;99.90
25914;DHT22;13718;50.922;5.346;2023-11-19T05:40:56;12.60;99.90
25914;DHT22;13718;50.922;5.346;2023-11-19T05:43:22;12.50;99.90
25914;DHT22;13718;50.922;5.346;2023-11-19T05:45:48;12.60;99.90
25914;DHT22;13718;50.922;5.346;2023-11-19T05:48:13;12.60;99.90
25914;DHT22;13718;50.922;5.346;2023-11-19T05:50:39;12.60;99.90
25914;DHT22;13718;50.922;5.346;2023-11-19T05:53:05;12.50;99.90
25914;DHT22;13718;50.922;5.346;2023-11-19T05:55:33;12.60;99.90
25914;DHT22;13718;50.922;5.346;2023-11-19T05:58:00;12.50;99.90
25914;DHT22;13718;50.922;5.346;2023-11-19T06:00:25;12.70;99.90
25914;DHT22;13718;50.922;5.346;2023-11-19T06:02:52;12.50;99.90
25914;DHT22;13718;50.922;5.346;2023-11-19T06:05:17;12.30;99.90
25914;DHT22;13718;50.922;5.346;2023-11-19T06:07:43;12.10;99.90
25914;DHT22;13718;50.922;5.346;2023-11-19T06:10:09;12.10;99.90
25914;DHT22;13718;50.922;5.346;2023-11-19T06:12:36;12.10;99.90
25914;DHT22;13718;50.922;5.346;2023-11-19T06:15:06;12.20;99.90
25914;DHT22;13718;50.922;5.346;2023-11-19T06:17:34;12.20;99.90
25914;DHT22;13718;50.922;5.346;2023-11-19T06:19:59;12.20;99.90
25914;DHT22;13718;50.922;5.346;2023-11-19T06:22:25;12.20;99.90
25914;DHT22;13718;50.922;5.346;2023-11-19T06:24:50;12.10;99.90
25914;DHT22;13718;50.922;5.346;2023-11-19T06:27:16;12.40;99.90
25914;DHT22;13718;50.922;5.346;2023-11-19T06:29:42;12.60;99.90
25914;DHT22;13718;50.922;5.346;2023-11-19T06:32:07;12.40;99.90
25914;DHT22;13718;50.922;5.346;2023-11-19T06:34:34;12.50;99.90
25914;DHT22;13718;50.922;5.346;2023-11-19T06:36:59;12.40;99.90
25914;DHT22;13718;50.922;5.346;2023-11-19T06:39:25;12.20;99.90
25914;DHT22;13718;50.922;5.346;2023-11-19T06:41:51;12.10;99.90
25914;DHT22;13718;50.922;5.346;2023-11-19T06:44:17;12.10;99.90
25914;DHT22;13718;50.922;5.346;2023-11-19T06:46:43;12.00;99.90
25914;DHT22;13718;50.922;5.346;2023-11-19T06:49:09;12.00;99.90
25914;DHT22;13718;50.922;5.346;2023-11-19T06:51:34;11.90;99.90
25914;DHT22;13718;50.922;5.346;2023-11-19T06:54:00;12.10;99.90
25914;DHT22;13718;50.922;5.346;2023-11-19T06:56:27;12.10;99.90
25914;DHT22;13718;50.922;5.346;2023-11-19T06:58:52;12.10;99.90
25914;DHT22;13718;50.922;5.346;2023-11-19T07:01:19;12.20;99.90
25914;DHT22;13718;50.922;5.346;2023-11-19T07:03:48;12.20;99.90
25914;DHT22;13718;50.922;5.346;2023-11-19T07:06:14;12.40;99.90
25914;DHT22;13718;50.922;5.346;2023-11-19T07:08:43;12.40;99.90
25914;DHT22;13718;50.922;5.346;2023-11-19T07:11:12;12.60;99.90
25914;DHT22;13718;50.922;5.346;2023-11-19T07:13:39;12.70;99.90
25914;DHT22;13718;50.922;5.346;2023-11-19T07:16:05;12.60;99.90
25914;DHT22;13718;50.922;5.346;2023-11-19T07:18:31;12.60;99.90
25914;DHT22;13718;50.922;5.346;2023-11-19T07:20:57;12.50;99.90
25914;DHT22;13718;50.922;5.346;2023-11-19T07:23:23;12.50;99.90
25914;DHT22;13718;50.922;5.346;2023-11-19T07:25:48;12.80;99.90
25914;DHT22;13718;50.922;5.346;2023-11-19T07:28:15;12.80;99.90
25914;DHT22;13718;50.922;5.346;2023-11-19T07:30:42;12.60;99.90
25914;DHT22;13718;50.922;5.346;2023-11-19T07:33:07;12.60;99.90
25914;DHT22;13718;50.922;5.346;2023-11-19T07:35:33;12.60;99.90
25914;DHT22;13718;50.922;5.346;2023-11-19T07:37:59;12.80;99.90
25914;DHT22;13718;50.922;5.346;2023-11-19T07:40:25;13.00;99.90
25914;DHT22;13718;50.922;5.346;2023-11-19T07:42:50;13.00;99.90
25914;DHT22;13718;50.922;5.346;2023-11-19T07:45:16;13.00;99.90
25914;DHT22;13718;50.922;5.346;2023-11-19T07:47:43;13.10;99.90
25914;DHT22;13718;50.922;5.346;2023-11-19T07:50:10;13.10;99.90
25914;DHT22;13718;50.922;5.346;2023-11-19T07:52:37;12.90;99.90
25914;DHT22;13718;50.922;5.346;2023-11-19T07:55:02;13.00;99.90
25914;DHT22;13718;50.922;5.346;2023-11-19T07:57:28;12.90;99.90
25914;DHT22;13718;50.922;5.346;2023-11-19T07:59:57;12.90;99.90
25914;DHT22;13718;50.922;5.346;2023-11-19T08:02:22;12.90;99.90
25914;DHT22;13718;50.922;5.346;2023-11-19T08:04:51;12.90;99.90
25914;DHT22;13718;50.922;5.346;2023-11-19T08:07:18;13.00;99.90
25914;DHT22;13718;50.922;5.346;2023-11-19T08:09:44;13.20;99.90
25914;DHT22;13718;50.922;5.346;2023-11-19T08:12:10;13.20;99.90
25914;DHT22;13718;50.922;5.346;2023-11-19T08:14:35;13.20;99.90
25914;DHT22;13718;50.922;5.346;2023-11-19T08:17:02;13.10;99.90
25914;DHT22;13718;50.922;5.346;2023-11-19T08:19:28;13.10;99.90
25914;DHT22;13718;50.922;5.346;2023-11-19T08:21:53;13.20;99.90
25914;DHT22;13718;50.922;5.346;2023-11-19T08:24:19;13.20;99.90
25914;DHT22;13718;50.922;5.346;2023-11-19T08:26:44;13.20;99.90
25914;DHT22;13718;50.922;5.346;2023-11-19T08:29:10;13.20;99.90
25914;DHT22;13718;50.922;5.346;2023-11-19T08:31:35;13.30;99.90
25914;DHT22;13718;50.922;5.346;2023-11-19T08:34:01;13.30;99.90
25914;DHT22;13718;50.922;5.346;2023-11-19T08:36:27;13.30;99.90
25914;DHT22;13718;50.922;5.346;2023-11-19T08:38:53;13.40;99.90
25914;DHT22;13718;50.922;5.346;2023-11-19T08:41:19;13.30;99.90
25914;DHT22;13718;50.922;5.346;2023-11-19T08:43:45;13.30;99.90
25914;DHT22;13718;50.922;5.346;2023-11-19T08:46:11;13.50;99.90
25914;DHT22;13718;50.922;5.346;2023-11-19T08:48:37;13.70;99.90
25914;DHT22;13718;50.922;5.346;2023-11-19T08:51:03;13.70;99.90
25914;DHT22;13718;50.922;5.346;2023-11-19T08:53:30;13.70;99.90
25914;DHT22;13718;50.922;5.346;2023-11-19T08:55:55;13.70;99.90
25914;DHT22;13718;50.922;5.346;2023-11-19T08:58:21;13.70;99.90
25914;DHT22;13718;50.922;5.346;2023-11-19T09:00:47;13.60;99.90
25914;DHT22;13718;50.922;5.346;2023-11-19T09:03:12;13.70;99.90
25914;DHT22;13718;50.922;5.346;2023-11-19T09:05:38;13.70;99.90
25914;DHT22;13718;50.922;5.346;2023-11-19T09:08:04;13.70;99.90
25914;DHT22;13718;50.922;5.346;2023-11-19T09:10:30;13.60;99.90
25914;DHT22;13718;50.922;5.346;2023-11-19T09:12:55;13.60;99.90
25914;DHT22;13718;50.922;5.346;2023-11-19T09:15:21;13.80;99.90
25914;DHT22;13718;50.922;5.346;2023-11-19T09:17:46;13.70;99.90
25914;DHT22;13718;50.922;5.346;2023-11-19T09:20:12;13.60;99.90
25914;DHT22;13718;50.922;5.346;2023-11-19T09:22:41;13.70;99.90
25914;DHT22;13718;50.922;5.346;2023-11-19T09:25:07;13.80;99.90
25914;DHT22;13718;50.922;5.346;2023-11-19T09:27:33;13.80;99.90
25914;DHT22;13718;50.922;5.346;2023-11-19T09:29:58;13.80;99.90
25914;DHT22;13718;50.922;5.346;2023-11-19T09:32:24;13.70;99.90
25914;DHT22;13718;50.922;5.346;2023-11-19T09:34:50;13.70;99.90
25914;DHT22;13718;50.922;5.346;2023-11-19T09:37:16;13.70;99.90
25914;DHT22;13718;50.922;5.346;2023-11-19T09:39:42;13.70;99.90
25914;DHT22;13718;50.922;5.346;2023-11-19T09:42:10;13.80;99.90
25914;DHT22;13718;50.922;5.346;2023-11-19T09:44:37;13.90;99.90
25914;DHT22;13718;50.922;5.346;2023-11-19T09:47:05;14.00;99.90
25914;DHT22;13718;50.922;5.346;2023-11-19T09:49:31;14.10;99.90
25914;DHT22;13718;50.922;5.346;2023-11-19T09:51:56;14.20;99.90
25914;DHT22;13718;50.922;5.346;2023-11-19T09:54:22;14.10;99.90
25914;DHT22;13718;50.922;5.346;2023-11-19T09:56:48;13.80;99.90
25914;DHT22;13718;50.922;5.346;2023-11-19T09:59:14;13.60;99.90
25914;DHT22;13718;50.922;5.346;2023-11-19T10:01:39;13.60;99.90
25914;DHT22;13718;50.922;5.346;2023-11-19T10:04:06;13.90;99.90
25914;DHT22;13718;50.922;5.346;2023-11-19T10:06:32;13.90;99.90
25914;DHT22;13718;50.922;5.346;2023-11-19T10:08:58;14.00;99.90
25914;DHT22;13718;50.922;5.346;2023-11-19T10:11:25;14.00;99.90
25914;DHT22;13718;50.922;5.346;2023-11-19T10:13:52;14.10;99.90
25914;DHT22;13718;50.922;5.346;2023-11-19T10:16:18;14.20;99.90
25914;DHT22;13718;50.922;5.346;2023-11-19T10:18:48;14.20;99.90
25914;DHT22;13718;50.922;5.346;2023-11-19T10:21:17;14.20;99.90
25914;DHT22;13718;50.922;5.346;2023-11-19T10:23:49;14.10;99.90
25914;DHT22;13718;50.922;5.346;2023-11-19T10:26:17;14.00;99.90
25914;DHT22;13718;50.922;5.346;2023-11-19T10:28:43;14.10;99.90
25914;DHT22;13718;50.922;5.346;2023-11-19T10:31:15;14.20;99.90
25914;DHT22;13718;50.922;5.346;2023-11-19T10:33:41;14.20;99.90
25914;DHT22;13718;50.922;5.346;2023-11-19T10:36:07;14.30;99.90
25914;DHT22;13718;50.922;5.346;2023-11-19T10:38:33;14.30;99.90
25914;DHT22;13718;50.922;5.346;2023-11-19T10:40:59;14.40;99.90
25914;DHT22;13718;50.922;5.346;2023-11-19T10:43:25;14.50;99.90
25914;DHT22;13718;50.922;5.346;2023-11-19T10:45:51;14.60;99.90
25914;DHT22;13718;50.922;5.346;2023-11-19T10:48:17;14.80;99.90
25914;DHT22;13718;50.922;5.346;2023-11-19T10:50:44;14.70;99.90
25914;DHT22;13718;50.922;5.346;2023-11-19T10:53:12;14.60;99.90
25914;DHT22;13718;50.922;5.346;2023-11-19T10:55:41;14.50;99.90
25914;DHT22;13718;50.922;5.346;2023-11-19T10:58:08;14.70;99.90
25914;DHT22;13718;50.922;5.346;2023-11-19T11:00:54;14.80;99.90
25914;DHT22;13718;50.922;5.346;2023-11-19T11:03:25;15.10;99.90
25914;DHT22;13718;50.922;5.346;2023-11-19T11:05:53;15.00;99.90
25914;DHT22;13718;50.922;5.346;2023-11-19T11:08:20;14.90;99.90
25914;DHT22;13718;50.922;5.346;2023-11-19T11:13:19;15.20;99.90
25914;DHT22;13718;50.922;5.346;2023-11-19T11:15:45;15.40;99.90
25914;DHT22;13718;50.922;5.346;2023-11-19T11:18:13;15.50;99.90
25914;DHT22;13718;50.922;5.346;2023-11-19T11:20:39;15.50;99.90
25914;DHT22;13718;50.922;5.346;2023-11-19T11:31:56;15.70;99.90
25914;DHT22;13718;50.922;5.346;2023-11-19T11:37:18;15.70;99.90
25914;DHT22;13718;50.922;5.346;2023-11-19T11:39:49;15.70;99.90
25914;DHT22;13718;50.922;5.346;2023-11-19T11:45:09;15.30;99.90
25914;DHT22;13718;50.922;5.346;2023-11-19T11:50:21;15.00;99.90
25914;DHT22;13718;50.922;5.346;2023-11-19T11:57:50;15.00;99.90
25914;DHT22;13718;50.922;5.346;2023-11-19T12:00:42;15.10;99.90
25914;DHT22;13718;50.922;5.346;2023-11-19T12:03:09;15.20;99.90
25914;DHT22;13718;50.922;5.346;2023-11-19T12:05:44;15.10;99.90
25914;DHT22;13718;50.922;5.346;2023-11-19T12:08:11;15.20;99.90
25914;DHT22;13718;50.922;5.346;2023-11-19T12:10:49;15.20;99.90
25914;DHT22;13718;50.922;5.346;2023-11-19T12:13:19;15.20;99.90
25914;DHT22;13718;50.922;5.346;2023-11-19T12:18:30;15.20;99.90
25914;DHT22;13718;50.922;5.346;2023-11-19T12:21:02;15.30;99.90
25914;DHT22;13718;50.922;5.346;2023-11-19T12:23:31;15.40;99.90
25914;DHT22;13718;50.922;5.346;2023-11-19T12:25:58;15.50;99.90
25914;DHT22;13718;50.922;5.346;2023-11-19T12:28:24;15.50;99.90
25914;DHT22;13718;50.922;5.346;2023-11-19T12:30:52;15.50;99.90
25914;DHT22;13718;50.922;5.346;2023-11-19T12:33:18;15.50;99.90
25914;DHT22;13718;50.922;5.346;2023-11-19T12:35:46;15.50;99.90
25914;DHT22;13718;50.922;5.346;2023-11-19T12:38:19;15.40;99.90
25914;DHT22;13718;50.922;5.346;2023-11-19T12:40:46;15.20;99.90
25914;DHT22;13718;50.922;5.346;2023-11-19T12:43:21;15.20;99.90
25914;DHT22;13718;50.922;5.346;2023-11-19T12:45:47;15.20;99.90
25914;DHT22;13718;50.922;5.346;2023-11-19T12:48:12;15.40;99.90
25914;DHT22;13718;50.922;5.346;2023-11-19T12:50:55;15.40;99.90
25914;DHT22;13718;50.922;5.346;2023-11-19T12:53:22;15.50;99.90
25914;DHT22;13718;50.922;5.346;2023-11-19T12:55:48;15.40;99.90
25914;DHT22;13718;50.922;5.346;2023-11-19T12:58:33;15.50;99.90
25914;DHT22;13718;50.922;5.346;2023-11-19T13:01:04;15.50;99.90
25914;DHT22;13718;50.922;5.346;2023-11-19T13:03:34;15.60;99.90
25914;DHT22;13718;50.922;5.346;2023-11-19T13:06:06;15.70;99.90
25914;DHT22;13718;50.922;5.346;2023-11-19T13:08:48;15.60;99.90
25914;DHT22;13718;50.922;5.346;2023-11-19T13:11:19;15.50;99.90
25914;DHT22;13718;50.922;5.346;2023-11-19T13:14:03;15.50;99.90
25914;DHT22;13718;50.922;5.346;2023-11-19T13:16:36;15.50;99.90
25914;DHT22;13718;50.922;5.346;2023-11-19T13:19:02;15.50;99.90
25914;DHT22;13718;50.922;5.346;2023-11-19T13:21:28;15.50;99.90
25914;DHT22;13718;50.922;5.346;2023-11-19T13:23:55;15.40;99.90
25914;DHT22;13718;50.922;5.346;2023-11-19T13:26:20;15.40;99.90
25914;DHT22;13718;50.922;5.346;2023-11-19T13:28:46;15.30;99.90
25914;DHT22;13718;50.922;5.346;2023-11-19T13:31:12;15.40;99.90
25914;DHT22;13718;50.922;5.346;2023-11-19T13:33:37;15.30;99.90
25914;DHT22;13718;50.922;5.346;2023-11-19T13:36:04;15.20;99.90
25914;DHT22;13718;50.922;5.346;2023-11-19T13:38:36;15.30;99.90
25914;DHT22;13718;50.922;5.346;2023-11-19T13:41:05;15.30;99.90
25914;DHT22;13718;50.922;5.346;2023-11-19T13:43:31;15.20;99.90
25914;DHT22;13718;50.922;5.346;2023-11-19T13:45:57;15.00;99.90
25914;DHT22;13718;50.922;5.346;2023-11-19T13:48:26;15.00;99.90
25914;DHT22;13718;50.922;5.346;2023-11-19T13:50:55;15.10;99.90
25914;DHT22;13718;50.922;5.346;2023-11-19T13:53:21;15.10;99.90
25914;DHT22;13718;50.922;5.346;2023-11-19T13:55:46;15.10;99.90
25914;DHT22;13718;50.922;5.346;2023-11-19T13:58:13;15.20;99.90
25914;DHT22;13718;50.922;5.346;2023-11-19T14:00:38;15.40;99.90
25914;DHT22;13718;50.922;5.346;2023-11-19T14:03:05;15.30;99.90
25914;DHT22;13718;50.922;5.346;2023-11-19T14:05:31;15.20;99.90
25914;DHT22;13718;50.922;5.346;2023-11-19T14:07:57;15.30;99.90
25914;DHT22;13718;50.922;5.346;2023-11-19T14:10:23;15.30;99.90
25914;DHT22;13718;50.922;5.346;2023-11-19T14:12:48;15.30;99.90
25914;DHT22;13718;50.922;5.346;2023-11-19T14:15:15;15.10;99.90
25914;DHT22;13718;50.922;5.346;2023-11-19T14:17:43;14.90;99.90
25914;DHT22;13718;50.922;5.346;2023-11-19T14:20:09;14.70;99.90
25914;DHT22;13718;50.922;5.346;2023-11-19T14:22:45;14.70;99.90
25914;DHT22;13718;50.922;5.346;2023-11-19T14:25:14;14.70;99.90
25914;DHT22;13718;50.922;5.346;2023-11-19T14:27:41;14.80;99.90
25914;DHT22;13718;50.922;5.346;2023-11-19T14:30:09;15.00;99.90
25914;DHT22;13718;50.922;5.346;2023-11-19T14:32:40;14.80;99.90
25914;DHT22;13718;50.922;5.346;2023-11-19T14:35:06;14.80;99.90
25914;DHT22;13718;50.922;5.346;2023-11-19T14:37:33;14.50;99.90
25914;DHT22;13718;50.922;5.346;2023-11-19T14:39:59;14.40;99.90
25914;DHT22;13718;50.922;5.346;2023-11-19T14:42:25;14.40;99.90
25914;DHT22;13718;50.922;5.346;2023-11-19T14:44:51;14.50;99.90
25914;DHT22;13718;50.922;5.346;2023-11-19T14:47:20;14.50;99.90
25914;DHT22;13718;50.922;5.346;2023-11-19T14:49:46;14.60;99.90
25914;DHT22;13718;50.922;5.346;2023-11-19T14:52:12;14.60;99.90
25914;DHT22;13718;50.922;5.346;2023-11-19T14:54:38;14.80;99.90
25914;DHT22;13718;50.922;5.346;2023-11-19T14:57:05;14.70;99.90
25914;DHT22;13718;50.922;5.346;2023-11-19T14:59:31;14.60;99.90
25914;DHT22;13718;50.922;5.346;2023-11-19T15:01:58;14.60;99.90
25914;DHT22;13718;50.922;5.346;2023-11-19T15:04:25;14.70;99.90
25914;DHT22;13718;50.922;5.346;2023-11-19T15:06:50;14.80;99.90
25914;DHT22;13718;50.922;5.346;2023-11-19T15:09:16;14.90;99.90
25914;DHT22;13718;50.922;5.346;2023-11-19T15:11:43;14.70;99.90
25914;DHT22;13718;50.922;5.346;2023-11-19T15:14:12;14.70;99.90
25914;DHT22;13718;50.922;5.346;2023-11-19T15:16:40;14.70;99.90
25914;DHT22;13718;50.922;5.346;2023-11-19T15:19:06;14.90;99.90
25914;DHT22;13718;50.922;5.346;2023-11-19T15:21:33;14.80;99.90
25914;DHT22;13718;50.922;5.346;2023-11-19T15:23:59;14.90;99.90
25914;DHT22;13718;50.922;5.346;2023-11-19T15:26:24;14.70;99.90
25914;DHT22;13718;50.922;5.346;2023-11-19T15:28:51;14.70;99.90
25914;DHT22;13718;50.922;5.346;2023-11-19T15:31:16;14.60;99.90
25914;DHT22;13718;50.922;5.346;2023-11-19T15:33:42;14.70;99.90
25914;DHT22;13718;50.922;5.346;2023-11-19T15:36:08;14.80;99.90
25914;DHT22;13718;50.922;5.346;2023-11-19T15:38:34;14.70;99.90
25914;DHT22;13718;50.922;5.346;2023-11-19T15:41:00;14.70;99.90
25914;DHT22;13718;50.922;5.346;2023-11-19T15:43:25;14.70;99.90
25914;DHT22;13718;50.922;5.346;2023-11-19T15:45:51;14.60;99.90
25914;DHT22;13718;50.922;5.346;2023-11-19T15:48:17;14.50;99.90
25914;DHT22;13718;50.922;5.346;2023-11-19T15:50:43;14.50;99.90
25914;DHT22;13718;50.922;5.346;2023-11-19T15:53:10;14.50;99.90
25914;DHT22;13718;50.922;5.346;2023-11-19T15:55:36;14.40;99.90
25914;DHT22;13718;50.922;5.346;2023-11-19T15:58:01;14.30;99.90